createdAt,value
2018-12-03T00:00:17.604Z,14.3
2018-12-03T00:00:43.695Z,14.28
2018-12-03T00:01:09.790Z,14.3
2018-12-03T00:01:35.897Z,14.3
2018-12-03T00:02:02.022Z,14.35
2018-12-03T00:02:28.134Z,14.32
2018-12-03T00:02:54.259Z,14.33
2018-12-03T00:03:20.393Z,14.33
2018-12-03T00:03:46.502Z,14.36
2018-12-03T00:04:12.612Z,14.3
2018-12-03T00:04:38.779Z,14.3
2018-12-03T00:05:04.886Z,14.32
2018-12-03T00:05:30.997Z,14.3
2018-12-03T00:05:57.129Z,14.28
2018-12-03T00:06:23.238Z,14.29
2018-12-03T00:06:49.366Z,14.33
2018-12-03T00:07:15.471Z,14.3
2018-12-03T00:07:41.593Z,14.3
2018-12-03T00:08:07.704Z,14.28
2018-12-03T00:08:33.812Z,14.37
2018-12-03T00:08:59.940Z,14.26
2018-12-03T00:09:26.078Z,14.28
2018-12-03T00:09:52.284Z,14.29
2018-12-03T00:10:18.398Z,14.32
2018-12-03T00:10:44.538Z,14.32
2018-12-03T00:11:10.640Z,14.26
2018-12-03T00:11:36.756Z,14.29
2018-12-03T00:12:02.900Z,14.3
2018-12-03T00:12:29.014Z,14.28
2018-12-03T00:12:55.120Z,14.33
2018-12-03T00:13:21.290Z,14.35
2018-12-03T00:13:47.436Z,14.29
2018-12-03T00:14:13.571Z,14.37
2018-12-03T00:14:39.687Z,14.37
2018-12-03T00:15:05.789Z,14.33
2018-12-03T00:15:31.887Z,14.43
2018-12-03T00:15:58.007Z,14.43
2018-12-03T00:16:24.115Z,14.43
2018-12-03T00:16:50.253Z,14.35
2018-12-03T00:17:16.398Z,14.37
2018-12-03T00:17:42.513Z,14.36
2018-12-03T00:18:08.634Z,14.37
2018-12-03T00:18:34.740Z,14.35
2018-12-03T00:19:00.881Z,14.33
2018-12-03T00:19:26.996Z,14.33
2018-12-03T00:19:53.104Z,14.35
2018-12-03T00:20:19.237Z,14.35
2018-12-03T00:20:45.351Z,14.35
2018-12-03T00:21:11.479Z,14.32
2018-12-03T00:21:37.618Z,14.32
2018-12-03T00:22:03.727Z,14.4
2018-12-03T00:22:29.857Z,14.36
2018-12-03T00:22:55.965Z,14.36
2018-12-03T00:23:22.098Z,14.41
2018-12-03T00:23:48.213Z,14.35
2018-12-03T00:24:14.327Z,14.4
2018-12-03T00:24:40.430Z,14.3
2018-12-03T00:25:06.533Z,14.35
2018-12-03T00:25:32.637Z,14.32
2018-12-03T00:25:58.776Z,14.4
2018-12-03T00:26:24.883Z,14.32
2018-12-03T00:26:50.984Z,14.32
2018-12-03T00:27:17.097Z,14.33
2018-12-03T00:27:43.203Z,14.32
2018-12-03T00:28:09.316Z,14.3
2018-12-03T00:28:35.418Z,14.32
2018-12-03T00:29:01.527Z,14.36
2018-12-03T00:29:27.640Z,14.3
2018-12-03T00:29:53.753Z,14.35
2018-12-03T00:30:19.859Z,14.33
2018-12-03T00:30:45.954Z,14.33
2018-12-03T00:31:12.053Z,14.47
2018-12-03T00:31:38.168Z,14.32
2018-12-03T00:32:04.276Z,14.43
2018-12-03T00:32:30.383Z,14.36
2018-12-03T00:32:56.485Z,14.41
2018-12-03T00:33:22.621Z,14.37
2018-12-03T00:33:48.726Z,14.36
2018-12-03T00:34:14.824Z,14.33
2018-12-03T00:34:40.961Z,14.29
2018-12-03T00:35:07.067Z,14.35
2018-12-03T00:35:33.163Z,14.32
2018-12-03T00:35:59.270Z,14.33
2018-12-03T00:36:25.382Z,14.37
2018-12-03T00:36:51.489Z,14.37
2018-12-03T00:37:17.628Z,14.45
2018-12-03T00:37:43.741Z,14.48
2018-12-03T00:38:09.850Z,14.44
2018-12-03T00:38:35.948Z,14.41
2018-12-03T00:39:02.061Z,14.5
2018-12-03T00:39:28.169Z,14.43
2018-12-03T00:39:54.305Z,14.43
2018-12-03T00:40:20.414Z,14.54
2018-12-03T00:40:46.519Z,14.36
2018-12-03T00:41:12.622Z,14.53
2018-12-03T00:41:38.764Z,14.48
2018-12-03T00:42:04.893Z,14.54
2018-12-03T00:42:30.996Z,14.48
2018-12-03T00:42:57.098Z,14.58
2018-12-03T00:43:23.205Z,14.5
2018-12-03T00:43:49.317Z,14.51
2018-12-03T00:44:15.427Z,14.5
2018-12-03T00:44:41.560Z,14.5
2018-12-03T00:45:07.699Z,14.41
2018-12-03T00:45:33.805Z,14.4
2018-12-03T00:45:59.905Z,14.5
2018-12-03T00:46:26.016Z,14.45
2018-12-03T00:46:52.128Z,14.5
2018-12-03T00:47:18.233Z,14.48
2018-12-03T00:47:44.334Z,14.47
2018-12-03T00:48:10.469Z,14.51
2018-12-03T00:48:36.571Z,14.45
2018-12-03T00:49:02.685Z,14.53
2018-12-03T00:49:28.791Z,14.47
2018-12-03T00:49:54.908Z,14.45
2018-12-03T00:50:21.015Z,14.48
2018-12-03T00:50:47.117Z,14.5
2018-12-03T00:51:13.222Z,14.45
2018-12-03T00:51:39.334Z,14.54
2018-12-03T00:52:05.439Z,14.5
2018-12-03T00:52:31.549Z,14.48
2018-12-03T00:52:57.660Z,14.47
2018-12-03T00:53:23.767Z,14.5
2018-12-03T00:53:49.874Z,14.43
2018-12-03T00:54:16.007Z,14.47
2018-12-03T00:54:42.107Z,14.5
2018-12-03T00:55:08.217Z,14.47
2018-12-03T00:55:34.355Z,14.4
2018-12-03T00:56:00.462Z,14.48
2018-12-03T00:56:26.566Z,14.5
2018-12-03T00:56:52.678Z,14.51
2018-12-03T00:57:18.782Z,14.45
2018-12-03T00:57:44.897Z,14.45
2018-12-03T00:58:11.005Z,14.5
2018-12-03T00:58:37.111Z,14.45
2018-12-03T00:59:03.226Z,14.53
2018-12-03T00:59:29.320Z,14.54
2018-12-03T00:59:55.426Z,14.58
2018-12-03T01:00:21.535Z,14.54
2018-12-03T01:00:47.643Z,14.45
2018-12-03T01:01:13.754Z,14.47
2018-12-03T01:01:39.857Z,14.5
2018-12-03T01:02:05.971Z,14.45
2018-12-03T01:02:32.080Z,14.5
2018-12-03T01:02:58.218Z,14.44
2018-12-03T01:03:24.330Z,14.55
2018-12-03T01:03:50.435Z,14.5
2018-12-03T01:04:16.551Z,14.51
2018-12-03T01:04:42.653Z,14.47
2018-12-03T01:05:08.760Z,14.54
2018-12-03T01:05:34.900Z,14.47
2018-12-03T01:06:01.005Z,14.54
2018-12-03T01:06:27.116Z,14.54
2018-12-03T01:06:53.219Z,14.5
2018-12-03T01:07:19.333Z,14.54
2018-12-03T01:07:45.446Z,14.55
2018-12-03T01:08:11.548Z,14.51
2018-12-03T01:08:37.651Z,14.48
2018-12-03T01:09:03.765Z,14.48
2018-12-03T01:09:29.869Z,14.54
2018-12-03T01:09:55.978Z,14.54
2018-12-03T01:10:22.107Z,14.53
2018-12-03T01:10:48.246Z,14.51
2018-12-03T01:11:14.347Z,14.54
2018-12-03T01:11:40.455Z,14.54
2018-12-03T01:12:06.564Z,14.58
2018-12-03T01:12:32.750Z,14.65
2018-12-03T01:12:58.861Z,14.6
2018-12-03T01:13:24.961Z,14.59
2018-12-03T01:13:51.100Z,14.65
2018-12-03T01:14:17.181Z,14.55
2018-12-03T01:14:43.282Z,14.59
2018-12-03T01:15:09.394Z,14.58
2018-12-03T01:15:35.505Z,14.53
2018-12-03T01:16:01.610Z,14.53
2018-12-03T01:16:27.717Z,14.53
2018-12-03T01:16:53.831Z,14.53
2018-12-03T01:17:19.939Z,14.48
2018-12-03T01:17:46.046Z,14.45
2018-12-03T01:18:12.192Z,14.43
2018-12-03T01:18:38.295Z,14.4
2018-12-03T01:19:04.404Z,14.32
2018-12-03T01:19:30.504Z,14.33
2018-12-03T01:19:56.614Z,14.32
2018-12-03T01:20:22.719Z,14.41
2018-12-03T01:20:48.829Z,14.4
2018-12-03T01:21:14.939Z,14.35
2018-12-03T01:21:41.045Z,14.33
2018-12-03T01:22:07.153Z,14.4
2018-12-03T01:22:33.265Z,14.37
2018-12-03T01:22:59.375Z,14.37
2018-12-03T01:23:25.474Z,14.4
2018-12-03T01:23:51.583Z,14.37
2018-12-03T01:24:17.689Z,14.35
2018-12-03T01:24:43.823Z,14.33
2018-12-03T01:25:09.923Z,14.25
2018-12-03T01:25:36.032Z,14.28
2018-12-03T01:26:02.138Z,14.29
2018-12-03T01:26:28.252Z,14.28
2018-12-03T01:26:54.357Z,14.29
2018-12-03T01:27:20.463Z,14.3
2018-12-03T01:27:46.570Z,14.22
2018-12-03T01:28:12.668Z,14.28
2018-12-03T01:28:38.775Z,14.2
2018-12-03T01:29:04.886Z,14.26
2018-12-03T01:29:31.020Z,14.2
2018-12-03T01:29:57.125Z,14.18
2018-12-03T01:30:23.238Z,14.23
2018-12-03T01:30:49.343Z,14.28
2018-12-03T01:31:15.456Z,14.3
2018-12-03T01:31:41.589Z,14.25
2018-12-03T01:32:08.680Z,14.23
2018-12-03T01:32:34.791Z,14.25
2018-12-03T01:33:00.895Z,14.29
2018-12-03T01:33:27.005Z,14.2
2018-12-03T01:33:53.113Z,14.2
2018-12-03T01:34:19.259Z,14.26
2018-12-03T01:34:45.389Z,14.23
2018-12-03T01:35:11.500Z,14.2
2018-12-03T01:35:37.613Z,14.23
2018-12-03T01:36:03.750Z,14.33
2018-12-03T01:36:29.852Z,14.2
2018-12-03T01:36:55.960Z,14.28
2018-12-03T01:37:22.062Z,14.29
2018-12-03T01:37:48.171Z,14.32
2018-12-03T01:38:14.286Z,14.33
2018-12-03T01:38:40.383Z,14.33
2018-12-03T01:39:06.490Z,14.36
2018-12-03T01:39:32.652Z,14.36
2018-12-03T01:39:58.792Z,14.33
2018-12-03T01:40:24.901Z,14.32
2018-12-03T01:40:51.013Z,14.33
2018-12-03T01:41:17.149Z,14.3
2018-12-03T01:41:43.252Z,14.29
2018-12-03T01:42:09.363Z,14.29
2018-12-03T01:42:35.471Z,14.29
2018-12-03T01:43:01.605Z,14.37
2018-12-03T01:43:27.709Z,14.35
2018-12-03T01:43:53.816Z,14.36
2018-12-03T01:44:19.922Z,14.33
2018-12-03T01:44:46.030Z,14.36
2018-12-03T01:45:12.136Z,14.36
2018-12-03T01:45:38.267Z,14.36
2018-12-03T01:46:04.369Z,14.37
2018-12-03T01:46:30.485Z,14.33
2018-12-03T01:46:56.642Z,14.3
2018-12-03T01:47:22.690Z,14.4
2018-12-03T01:47:48.802Z,14.4
2018-12-03T01:48:14.910Z,14.4
2018-12-03T01:48:41.012Z,14.35
2018-12-03T01:49:08.106Z,14.35
2018-12-03T01:49:34.215Z,14.37
2018-12-03T01:50:00.322Z,14.33
2018-12-03T01:50:27.843Z,14.35
2018-12-03T01:50:53.952Z,14.36
2018-12-03T01:51:20.062Z,14.37
2018-12-03T01:51:46.168Z,14.4
2018-12-03T01:52:12.280Z,14.43
2018-12-03T01:52:38.384Z,14.43
2018-12-03T01:53:04.492Z,14.45
2018-12-03T01:53:30.658Z,14.33
2018-12-03T01:53:57.662Z,14.43
2018-12-03T01:54:23.769Z,14.41
2018-12-03T01:54:49.882Z,14.43
2018-12-03T01:55:15.987Z,14.44
2018-12-03T01:55:42.087Z,14.43
2018-12-03T01:56:08.199Z,14.5
2018-12-03T01:56:34.303Z,14.48
2018-12-03T01:57:00.409Z,14.44
2018-12-03T01:57:26.515Z,14.51
2018-12-03T01:57:52.630Z,14.54
2018-12-03T01:58:18.730Z,14.5
2018-12-03T01:58:44.841Z,14.5
2018-12-03T01:59:10.947Z,14.53
2018-12-03T01:59:37.061Z,14.45
2018-12-03T02:00:03.163Z,14.5
2018-12-03T02:00:29.302Z,14.5
2018-12-03T02:00:55.406Z,14.45
2018-12-03T02:01:21.512Z,14.44
2018-12-03T02:01:47.649Z,14.48
2018-12-03T02:02:13.755Z,14.54
2018-12-03T02:02:39.858Z,14.55
2018-12-03T02:03:05.969Z,14.48
2018-12-03T02:03:32.072Z,14.47
2018-12-03T02:03:58.178Z,14.59
2018-12-03T02:04:24.322Z,14.45
2018-12-03T02:04:50.428Z,14.48
2018-12-03T02:05:16.538Z,14.43
2018-12-03T02:05:42.650Z,14.45
2018-12-03T02:06:08.759Z,14.44
2018-12-03T02:06:34.867Z,14.54
2018-12-03T02:07:00.965Z,14.47
2018-12-03T02:07:27.105Z,14.55
2018-12-03T02:07:53.242Z,14.47
2018-12-03T02:08:19.343Z,14.48
2018-12-03T02:08:45.450Z,14.47
2018-12-03T02:09:11.563Z,14.48
2018-12-03T02:09:37.703Z,14.48
2018-12-03T02:10:03.823Z,14.58
2018-12-03T02:10:29.931Z,14.44
2018-12-03T02:10:56.061Z,14.48
2018-12-03T02:11:22.171Z,14.44
2018-12-03T02:11:48.273Z,14.41
2018-12-03T02:12:14.384Z,14.4
2018-12-03T02:12:40.514Z,14.4
2018-12-03T02:13:06.646Z,14.45
2018-12-03T02:13:32.776Z,14.4
2018-12-03T02:13:58.885Z,14.36
2018-12-03T02:14:25.079Z,14.36
2018-12-03T02:14:51.182Z,14.41
2018-12-03T02:15:17.308Z,14.43
2018-12-03T02:15:43.416Z,14.4
2018-12-03T02:16:09.519Z,14.35
2018-12-03T02:16:35.626Z,14.37
2018-12-03T02:17:01.730Z,14.37
2018-12-03T02:17:27.837Z,14.37
2018-12-03T02:17:53.946Z,14.33
2018-12-03T02:18:20.051Z,14.4
2018-12-03T02:18:46.186Z,14.33
2018-12-03T02:19:12.297Z,14.4
2018-12-03T02:19:38.408Z,14.47
2018-12-03T02:20:04.517Z,14.44
2018-12-03T02:20:30.624Z,14.47
2018-12-03T02:20:56.724Z,14.51
2018-12-03T02:21:22.838Z,14.51
2018-12-03T02:21:48.932Z,14.47
2018-12-03T02:22:15.066Z,14.51
2018-12-03T02:22:41.177Z,14.55
2018-12-03T02:23:07.279Z,14.53
2018-12-03T02:23:33.383Z,14.54
2018-12-03T02:23:59.494Z,14.54
2018-12-03T02:24:25.596Z,14.55
2018-12-03T02:24:51.708Z,14.55
2018-12-03T02:25:17.805Z,14.5
2018-12-03T02:25:43.921Z,14.48
2018-12-03T02:26:10.023Z,14.48
2018-12-03T02:26:36.130Z,14.58
2018-12-03T02:27:02.240Z,14.55
2018-12-03T02:27:28.353Z,14.54
2018-12-03T02:27:54.463Z,14.54
2018-12-03T02:28:20.601Z,14.54
2018-12-03T02:28:46.706Z,14.55
2018-12-03T02:29:12.812Z,14.59
2018-12-03T02:29:38.925Z,14.59
2018-12-03T02:30:05.033Z,14.47
2018-12-03T02:30:31.163Z,14.59
2018-12-03T02:30:57.270Z,14.5
2018-12-03T02:31:23.427Z,14.54
2018-12-03T02:31:49.533Z,14.55
2018-12-03T02:32:15.643Z,14.47
2018-12-03T02:32:41.749Z,14.53
2018-12-03T02:33:07.883Z,14.58
2018-12-03T02:33:34.014Z,14.53
2018-12-03T02:34:00.130Z,14.6
2018-12-03T02:34:26.231Z,14.51
2018-12-03T02:34:52.341Z,14.65
2018-12-03T02:35:18.473Z,14.55
2018-12-03T02:35:44.634Z,14.65
2018-12-03T02:36:10.797Z,14.63
2018-12-03T02:36:36.912Z,14.65
2018-12-03T02:37:03.018Z,14.66
2018-12-03T02:37:29.129Z,14.7
2018-12-03T02:37:55.263Z,14.69
2018-12-03T02:38:21.367Z,14.63
2018-12-03T02:38:47.476Z,14.62
2018-12-03T02:39:13.581Z,14.6
2018-12-03T02:39:39.753Z,14.65
2018-12-03T02:40:05.857Z,14.59
2018-12-03T02:40:31.967Z,14.63
2018-12-03T02:40:58.071Z,14.68
2018-12-03T02:41:24.215Z,14.66
2018-12-03T02:41:50.336Z,14.66
2018-12-03T02:42:16.471Z,14.66
2018-12-03T02:42:42.578Z,14.6
2018-12-03T02:43:08.711Z,14.59
2018-12-03T02:43:34.851Z,14.6
2018-12-03T02:44:00.956Z,14.65
2018-12-03T02:44:27.070Z,14.62
2018-12-03T02:44:53.198Z,14.59
2018-12-03T02:45:19.315Z,14.63
2018-12-03T02:45:45.418Z,14.54
2018-12-03T02:46:11.567Z,14.7
2018-12-03T02:46:37.710Z,14.66
2018-12-03T02:47:03.809Z,14.68
2018-12-03T02:47:29.919Z,14.65
2018-12-03T02:47:56.024Z,14.54
2018-12-03T02:48:22.133Z,14.66
2018-12-03T02:48:48.270Z,14.62
2018-12-03T02:49:14.379Z,14.58
2018-12-03T02:49:40.534Z,14.47
2018-12-03T02:50:06.646Z,14.5
2018-12-03T02:50:32.752Z,14.58
2018-12-03T02:50:58.861Z,14.6
2018-12-03T02:51:24.965Z,14.47
2018-12-03T02:51:51.100Z,14.55
2018-12-03T02:52:17.230Z,14.5
2018-12-03T02:52:43.370Z,14.5
2018-12-03T02:53:09.478Z,14.48
2018-12-03T02:53:35.588Z,14.44
2018-12-03T02:54:01.696Z,14.41
2018-12-03T02:54:27.798Z,14.48
2018-12-03T02:54:53.938Z,14.48
2018-12-03T02:55:20.068Z,14.45
2018-12-03T02:55:46.187Z,14.4
2018-12-03T02:56:12.350Z,14.35
2018-12-03T02:56:38.485Z,14.33
2018-12-03T02:57:04.589Z,14.32
2018-12-03T02:57:30.699Z,14.37
2018-12-03T02:57:56.825Z,14.37
2018-12-03T02:58:22.930Z,14.43
2018-12-03T02:58:49.045Z,14.28
2018-12-03T02:59:15.179Z,14.33
2018-12-03T02:59:41.294Z,14.37
2018-12-03T03:00:07.391Z,14.36
2018-12-03T03:00:33.501Z,14.37
2018-12-03T03:00:59.667Z,14.36
2018-12-03T03:01:25.775Z,14.33
2018-12-03T03:01:51.882Z,14.35
2018-12-03T03:02:17.991Z,14.35
2018-12-03T03:02:44.133Z,14.35
2018-12-03T03:03:10.240Z,14.3
2018-12-03T03:03:36.404Z,14.44
2018-12-03T03:04:02.513Z,14.41
2018-12-03T03:04:28.625Z,14.45
2018-12-03T03:04:54.727Z,14.5
2018-12-03T03:05:20.833Z,14.51
2018-12-03T03:05:46.947Z,14.5
2018-12-03T03:06:13.043Z,14.47
2018-12-03T03:06:39.157Z,14.54
2018-12-03T03:07:05.318Z,14.53
2018-12-03T03:07:31.425Z,14.58
2018-12-03T03:07:57.527Z,14.45
2018-12-03T03:08:23.668Z,14.51
2018-12-03T03:08:49.779Z,14.51
2018-12-03T03:09:15.918Z,14.5
2018-12-03T03:09:42.042Z,14.47
2018-12-03T03:10:08.188Z,14.55
2018-12-03T03:10:34.292Z,14.44
2018-12-03T03:11:00.451Z,14.51
2018-12-03T03:11:26.540Z,14.51
2018-12-03T03:11:52.648Z,14.53
2018-12-03T03:12:18.753Z,14.48
2018-12-03T03:12:44.869Z,14.5
2018-12-03T03:13:10.969Z,14.53
2018-12-03T03:13:37.079Z,14.43
2018-12-03T03:14:03.186Z,14.37
2018-12-03T03:14:29.313Z,14.36
2018-12-03T03:14:55.456Z,14.28
2018-12-03T03:15:21.566Z,14.3
2018-12-03T03:15:47.729Z,14.36
2018-12-03T03:16:13.865Z,14.3
2018-12-03T03:16:40.034Z,14.17
2018-12-03T03:17:06.149Z,14.15
2018-12-03T03:17:32.257Z,14.23
2018-12-03T03:17:58.396Z,14.18
2018-12-03T03:18:24.508Z,14.26
2018-12-03T03:18:50.644Z,14.2
2018-12-03T03:19:16.747Z,14.2
2018-12-03T03:19:42.887Z,14.3
2018-12-03T03:20:09.003Z,14.29
2018-12-03T03:20:35.157Z,14.25
2018-12-03T03:21:01.295Z,14.3
2018-12-03T03:21:27.487Z,14.29
2018-12-03T03:21:53.651Z,14.29
2018-12-03T03:22:19.790Z,14.3
2018-12-03T03:22:45.897Z,14.33
2018-12-03T03:23:12.032Z,14.33
2018-12-03T03:23:38.165Z,14.35
2018-12-03T03:24:04.304Z,14.37
2018-12-03T03:24:30.435Z,14.37
2018-12-03T03:24:56.540Z,14.36
2018-12-03T03:25:22.676Z,14.37
2018-12-03T03:25:48.782Z,14.32
2018-12-03T03:26:14.885Z,14.36
2018-12-03T03:26:40.993Z,14.33
2018-12-03T03:27:07.100Z,14.33
2018-12-03T03:27:33.235Z,14.37
2018-12-03T03:27:59.351Z,14.32
2018-12-03T03:28:25.483Z,14.33
2018-12-03T03:28:51.643Z,14.37
2018-12-03T03:29:17.749Z,14.44
2018-12-03T03:29:43.863Z,14.41
2018-12-03T03:30:10.033Z,14.4
2018-12-03T03:30:36.191Z,14.47
2018-12-03T03:31:02.334Z,14.44
2018-12-03T03:31:28.476Z,14.44
2018-12-03T03:31:54.635Z,14.4
2018-12-03T03:32:20.857Z,14.33
2018-12-03T03:32:47.043Z,14.47
2018-12-03T03:33:13.226Z,14.32
2018-12-03T03:33:39.361Z,14.3
2018-12-03T03:34:05.523Z,14.4
2018-12-03T03:34:31.661Z,14.47
2018-12-03T03:34:57.768Z,14.4
2018-12-03T03:35:23.874Z,14.33
2018-12-03T03:35:50.016Z,14.32
2018-12-03T03:36:16.155Z,14.35
2018-12-03T03:36:42.284Z,14.41
2018-12-03T03:37:08.392Z,14.32
2018-12-03T03:37:34.498Z,14.33
2018-12-03T03:38:00.636Z,14.4
2018-12-03T03:38:26.741Z,14.35
2018-12-03T03:38:52.850Z,14.37
2018-12-03T03:39:19.016Z,14.43
2018-12-03T03:39:45.126Z,14.33
2018-12-03T03:40:11.302Z,14.32
2018-12-03T03:40:37.496Z,14.36
2018-12-03T03:41:03.641Z,14.3
2018-12-03T03:41:29.772Z,14.37
2018-12-03T03:41:55.881Z,14.32
2018-12-03T03:42:22.051Z,14.32
2018-12-03T03:42:48.191Z,14.36
2018-12-03T03:43:14.326Z,14.4
2018-12-03T03:43:40.469Z,14.37
2018-12-03T03:44:06.608Z,14.3
2018-12-03T03:44:32.712Z,14.35
2018-12-03T03:44:58.885Z,14.37
2018-12-03T03:45:25.028Z,14.32
2018-12-03T03:45:51.189Z,14.33
2018-12-03T03:46:17.377Z,14.41
2018-12-03T03:46:43.543Z,14.41
2018-12-03T03:47:09.757Z,14.37
2018-12-03T03:47:35.854Z,14.37
2018-12-03T03:48:01.982Z,14.37
2018-12-03T03:48:28.123Z,14.35
2018-12-03T03:48:54.228Z,14.37
2018-12-03T03:49:20.339Z,14.32
2018-12-03T03:49:46.447Z,14.3
2018-12-03T03:50:12.554Z,14.35
2018-12-03T03:50:38.661Z,14.36
2018-12-03T03:51:04.786Z,14.3
2018-12-03T03:51:30.893Z,14.33
2018-12-03T03:51:57.009Z,14.37
2018-12-03T03:52:23.147Z,14.33
2018-12-03T03:52:49.281Z,14.36
2018-12-03T03:53:15.386Z,14.37
2018-12-03T03:53:41.494Z,14.44
2018-12-03T03:54:07.631Z,14.37
2018-12-03T03:54:34.758Z,14.41
2018-12-03T03:55:00.858Z,14.47
2018-12-03T03:55:26.990Z,14.41
2018-12-03T03:55:53.098Z,14.43
2018-12-03T03:56:19.263Z,14.44
2018-12-03T03:56:45.407Z,14.37
2018-12-03T03:57:11.511Z,14.41
2018-12-03T03:57:37.626Z,14.4
2018-12-03T03:58:03.753Z,14.4
2018-12-03T03:58:29.896Z,14.37
2018-12-03T03:58:56.017Z,14.37
2018-12-03T03:59:22.126Z,14.36
2018-12-03T03:59:48.229Z,14.37
2018-12-03T04:00:14.352Z,14.45
2018-12-03T04:00:40.472Z,14.37
2018-12-03T04:01:06.585Z,14.43
2018-12-03T04:01:32.694Z,14.4
2018-12-03T04:01:58.838Z,14.37
2018-12-03T04:02:24.936Z,14.33
2018-12-03T04:02:51.980Z,14.37
2018-12-03T04:03:18.099Z,14.33
2018-12-03T04:03:44.210Z,14.36
2018-12-03T04:04:10.344Z,14.43
2018-12-03T04:04:36.502Z,14.44
2018-12-03T04:05:02.638Z,14.41
2018-12-03T04:05:28.741Z,14.35
2018-12-03T04:05:54.882Z,14.43
2018-12-03T04:06:21.017Z,14.37
2018-12-03T04:06:47.126Z,14.37
2018-12-03T04:07:13.295Z,14.44
2018-12-03T04:07:39.391Z,14.4
2018-12-03T04:08:05.501Z,14.33
2018-12-03T04:08:31.631Z,14.4
2018-12-03T04:08:57.738Z,14.35
2018-12-03T04:09:23.841Z,14.37
2018-12-03T04:09:49.946Z,14.35
2018-12-03T04:10:16.085Z,14.32
2018-12-03T04:10:42.202Z,14.37
2018-12-03T04:11:08.309Z,14.43
2018-12-03T04:11:34.422Z,14.36
2018-12-03T04:12:00.582Z,14.44
2018-12-03T04:12:26.710Z,14.37
2018-12-03T04:12:52.818Z,14.32
2018-12-03T04:13:18.958Z,14.41
2018-12-03T04:13:45.063Z,14.41
2018-12-03T04:14:11.166Z,14.4
2018-12-03T04:14:37.303Z,14.37
2018-12-03T04:15:03.413Z,14.33
2018-12-03T04:15:29.547Z,14.36
2018-12-03T04:15:55.678Z,14.36
2018-12-03T04:16:21.786Z,14.37
2018-12-03T04:16:47.893Z,14.33
2018-12-03T04:17:13.996Z,14.4
2018-12-03T04:17:40.102Z,14.33
2018-12-03T04:18:06.212Z,14.4
2018-12-03T04:18:32.318Z,14.36
2018-12-03T04:18:58.429Z,14.3
2018-12-03T04:19:24.567Z,14.35
2018-12-03T04:19:50.674Z,14.35
2018-12-03T04:20:16.778Z,14.35
2018-12-03T04:20:42.914Z,14.35
2018-12-03T04:21:09.058Z,14.37
2018-12-03T04:21:35.164Z,14.47
2018-12-03T04:22:01.272Z,14.44
2018-12-03T04:22:27.405Z,14.48
2018-12-03T04:22:53.509Z,14.43
2018-12-03T04:23:19.651Z,14.44
2018-12-03T04:23:45.784Z,14.37
2018-12-03T04:24:11.889Z,14.41
2018-12-03T04:24:38.029Z,14.32
2018-12-03T04:25:04.129Z,14.36
2018-12-03T04:25:30.240Z,14.36
2018-12-03T04:25:56.340Z,14.32
2018-12-03T04:26:22.447Z,14.33
2018-12-03T04:26:48.575Z,14.32
2018-12-03T04:27:14.721Z,14.3
2018-12-03T04:27:40.820Z,14.26
2018-12-03T04:28:06.957Z,14.3
2018-12-03T04:28:33.124Z,14.28
2018-12-03T04:28:59.235Z,14.2
2018-12-03T04:29:25.370Z,14.25
2018-12-03T04:29:51.500Z,14.15
2018-12-03T04:30:17.631Z,14.23
2018-12-03T04:30:43.782Z,14.26
2018-12-03T04:31:09.856Z,14.23
2018-12-03T04:31:35.994Z,14.22
2018-12-03T04:32:02.160Z,14.23
2018-12-03T04:32:28.291Z,14.26
2018-12-03T04:32:54.402Z,14.25
2018-12-03T04:33:20.535Z,14.26
2018-12-03T04:33:46.642Z,14.28
2018-12-03T04:34:12.781Z,14.3
2018-12-03T04:34:38.890Z,14.23
2018-12-03T04:35:04.996Z,14.29
2018-12-03T04:35:31.107Z,14.36
2018-12-03T04:35:57.240Z,14.3
2018-12-03T04:36:23.349Z,14.36
2018-12-03T04:36:49.447Z,14.37
2018-12-03T04:37:15.556Z,14.32
2018-12-03T04:37:41.672Z,14.36
2018-12-03T04:38:07.804Z,14.3
2018-12-03T04:38:33.940Z,14.4
2018-12-03T04:39:00.050Z,14.35
2018-12-03T04:39:26.188Z,14.36
2018-12-03T04:39:52.327Z,14.29
2018-12-03T04:40:18.461Z,14.32
2018-12-03T04:40:44.592Z,14.25
2018-12-03T04:41:10.703Z,14.32
2018-12-03T04:41:36.806Z,14.33
2018-12-03T04:42:02.908Z,14.32
2018-12-03T04:42:29.040Z,14.36
2018-12-03T04:42:55.175Z,14.37
2018-12-03T04:43:21.281Z,14.36
2018-12-03T04:43:47.388Z,14.4
2018-12-03T04:44:13.499Z,14.33
2018-12-03T04:44:39.607Z,14.33
2018-12-03T04:45:05.708Z,14.3
2018-12-03T04:45:31.816Z,14.36
2018-12-03T04:45:57.951Z,14.36
2018-12-03T04:46:24.060Z,14.36
2018-12-03T04:46:50.195Z,14.36
2018-12-03T04:47:16.303Z,14.43
2018-12-03T04:47:42.417Z,14.37
2018-12-03T04:48:08.523Z,14.33
2018-12-03T04:48:34.633Z,14.35
2018-12-03T04:49:00.795Z,14.36
2018-12-03T04:49:26.897Z,14.36
2018-12-03T04:49:53.009Z,14.37
2018-12-03T04:50:19.114Z,14.33
2018-12-03T04:50:45.222Z,14.4
2018-12-03T04:51:11.351Z,14.3
2018-12-03T04:51:37.468Z,14.37
2018-12-03T04:52:03.627Z,14.37
2018-12-03T04:52:29.741Z,14.48
2018-12-03T04:52:55.850Z,14.44
2018-12-03T04:53:21.986Z,14.47
2018-12-03T04:53:48.084Z,14.45
2018-12-03T04:54:14.188Z,14.53
2018-12-03T04:54:40.352Z,14.47
2018-12-03T04:55:06.459Z,14.45
2018-12-03T04:55:32.574Z,14.43
2018-12-03T04:55:58.703Z,14.44
2018-12-03T04:56:24.817Z,14.47
2018-12-03T04:56:50.927Z,14.47
2018-12-03T04:57:17.033Z,14.47
2018-12-03T04:57:43.148Z,14.44
2018-12-03T04:58:09.251Z,14.48
2018-12-03T04:58:35.352Z,14.48
2018-12-03T04:59:01.458Z,14.44
2018-12-03T04:59:27.563Z,14.45
2018-12-03T04:59:53.704Z,14.53
2018-12-03T05:00:19.869Z,14.45
2018-12-03T05:00:45.981Z,14.44
2018-12-03T05:01:12.084Z,14.47
2018-12-03T05:01:38.203Z,14.44
2018-12-03T05:02:04.305Z,14.41
2018-12-03T05:02:30.432Z,14.41
2018-12-03T05:02:56.570Z,14.32
2018-12-03T05:03:22.679Z,14.3
2018-12-03T05:03:48.814Z,14.37
2018-12-03T05:04:14.948Z,14.4
2018-12-03T05:04:41.057Z,14.41
2018-12-03T05:05:07.194Z,14.35
2018-12-03T05:05:33.324Z,14.41
2018-12-03T05:05:59.434Z,14.33
2018-12-03T05:06:25.543Z,14.36
2018-12-03T05:06:51.732Z,14.33
2018-12-03T05:07:17.818Z,14.33
2018-12-03T05:07:43.926Z,14.37
2018-12-03T05:08:10.022Z,14.35
2018-12-03T05:08:36.131Z,14.37
2018-12-03T05:09:02.237Z,14.35
2018-12-03T05:09:28.345Z,14.32
2018-12-03T05:09:54.459Z,14.33
2018-12-03T05:10:20.569Z,14.35
2018-12-03T05:10:46.671Z,14.36
2018-12-03T05:11:12.780Z,14.29
2018-12-03T05:11:38.927Z,14.4
2018-12-03T05:12:05.077Z,14.36
2018-12-03T05:12:31.212Z,14.2
2018-12-03T05:12:57.351Z,14.26
2018-12-03T05:13:23.487Z,14.23
2018-12-03T05:13:49.584Z,14.2
2018-12-03T05:14:15.693Z,14.15
2018-12-03T05:14:41.800Z,14.17
2018-12-03T05:15:07.901Z,14.15
2018-12-03T05:15:34.007Z,14.25
2018-12-03T05:16:00.118Z,14.18
2018-12-03T05:16:26.226Z,14.18
2018-12-03T05:16:52.357Z,14.17
2018-12-03T05:17:18.465Z,14.14
2018-12-03T05:17:44.566Z,14.22
2018-12-03T05:18:10.677Z,14.11
2018-12-03T05:18:36.809Z,14.2
2018-12-03T05:19:02.919Z,14.22
2018-12-03T05:19:29.024Z,14.11
2018-12-03T05:19:55.126Z,14.08
2018-12-03T05:20:21.237Z,14.17
2018-12-03T05:20:47.352Z,14.18
2018-12-03T05:21:13.497Z,14.23
2018-12-03T05:21:39.601Z,14.22
2018-12-03T05:22:05.702Z,14.25
2018-12-03T05:22:31.836Z,14.23
2018-12-03T05:22:57.938Z,14.1
2018-12-03T05:23:24.042Z,14.17
2018-12-03T05:23:50.153Z,14.17
2018-12-03T05:24:17.250Z,14.17
2018-12-03T05:24:43.389Z,14.23
2018-12-03T05:25:09.496Z,14.2
2018-12-03T05:25:36.592Z,14.23
2018-12-03T05:26:02.695Z,14.17
2018-12-03T05:26:28.815Z,14.26
2018-12-03T05:26:54.944Z,14.26
2018-12-03T05:27:21.050Z,14.11
2018-12-03T05:27:47.160Z,14.12
2018-12-03T05:28:13.266Z,14.15
2018-12-03T05:28:39.374Z,14.12
2018-12-03T05:29:05.480Z,14.25
2018-12-03T05:29:31.594Z,14.23
2018-12-03T05:29:57.727Z,14.26
2018-12-03T05:30:23.861Z,14.26
2018-12-03T05:30:49.973Z,14.3
2018-12-03T05:31:16.106Z,14.26
2018-12-03T05:31:42.235Z,14.26
2018-12-03T05:32:08.372Z,14.23
2018-12-03T05:32:34.482Z,14.18
2018-12-03T05:33:00.594Z,14.23
2018-12-03T05:33:26.724Z,14.3
2018-12-03T05:33:52.832Z,14.32
2018-12-03T05:34:18.935Z,14.28
2018-12-03T05:34:45.078Z,14.2
2018-12-03T05:35:11.183Z,14.18
2018-12-03T05:35:37.289Z,14.32
2018-12-03T05:36:03.394Z,14.3
2018-12-03T05:36:29.550Z,14.33
2018-12-03T05:36:55.660Z,14.3
2018-12-03T05:37:21.770Z,14.32
2018-12-03T05:37:47.896Z,14.37
2018-12-03T05:38:14.035Z,14.36